sensor_id;sensor_type;location;lat;lon;timestamp;temperature;humidity
47825;DHT22;33589;48.242;14.676;2023-07-20T00:01:58;23.30;80.80
47825;DHT22;33589;48.242;14.676;2023-07-20T00:04:23;23.00;81.20
47825;DHT22;33589;48.242;14.676;2023-07-20T00:06:49;23.10;81.60
47825;DHT22;33589;48.242;14.676;2023-07-20T00:09:15;23.10;82.50
47825;DHT22;33589;48.242;14.676;2023-07-20T00:11:48;23.10;81.80
47825;DHT22;33589;48.242;14.676;2023-07-20T00:14:15;23.00;82.00
47825;DHT22;33589;48.242;14.676;2023-07-20T00:16:40;23.20;81.80
47825;DHT22;33589;48.242;14.676;2023-07-20T00:19:06;22.90;81.50
47825;DHT22;33589;48.242;14.676;2023-07-20T00:21:32;23.00;81.70
47825;DHT22;33589;48.242;14.676;2023-07-20T00:23:57;23.10;82.00
47825;DHT22;33589;48.242;14.676;2023-07-20T00:26:23;23.10;82.90
47825;DHT22;33589;48.242;14.676;2023-07-20T00:28:50;22.90;83.00
47825;DHT22;33589;48.242;14.676;2023-07-20T00:31:18;23.10;83.30
47825;DHT22;33589;48.242;14.676;2023-07-20T00:33:44;23.20;83.20
47825;DHT22;33589;48.242;14.676;2023-07-20T00:36:10;23.20;83.70
47825;DHT22;33589;48.242;14.676;2023-07-20T00:38:35;22.90;83.30
47825;DHT22;33589;48.242;14.676;2023-07-20T00:41:01;22.80;83.40
47825;DHT22;33589;48.242;14.676;2023-07-20T00:43:27;22.70;83.60
47825;DHT22;33589;48.242;14.676;2023-07-20T00:45:52;23.00;83.80
47825;DHT22;33589;48.242;14.676;2023-07-20T00:48:18;22.80;83.40
47825;DHT22;33589;48.242;14.676;2023-07-20T00:50:44;22.80;83.80
47825;DHT22;33589;48.242;14.676;2023-07-20T00:53:11;22.60;84.10
47825;DHT22;33589;48.242;14.676;2023-07-20T00:55:36;22.70;84.10
47825;DHT22;33589;48.242;14.676;2023-07-20T00:58:02;22.60;84.50
47825;DHT22;33589;48.242;14.676;2023-07-20T01:00:28;22.50;85.00
47825;DHT22;33589;48.242;14.676;2023-07-20T01:02:54;22.50;84.50
47825;DHT22;33589;48.242;14.676;2023-07-20T01:05:20;22.80;83.50
47825;DHT22;33589;48.242;14.676;2023-07-20T01:07:55;22.50;82.20
47825;DHT22;33589;48.242;14.676;2023-07-20T01:10:39;22.50;81.40
47825;DHT22;33589;48.242;14.676;2023-07-20T01:13:07;22.40;84.20
47825;DHT22;33589;48.242;14.676;2023-07-20T01:15:35;22.50;88.80
47825;DHT22;33589;48.242;14.676;2023-07-20T01:18:00;22.60;88.90
47825;DHT22;33589;48.242;14.676;2023-07-20T01:20:31;22.60;90.30
47825;DHT22;33589;48.242;14.676;2023-07-20T06:00:09;30.90;75.50
47825;DHT22;33589;48.242;14.676;2023-07-20T06:05:05;32.00;71.40
47825;DHT22;33589;48.242;14.676;2023-07-20T06:07:30;32.40;52.10
47825;DHT22;33589;48.242;14.676;2023-07-20T06:09:57;32.80;59.50
47825;DHT22;33589;48.242;14.676;2023-07-20T06:12:23;33.10;59.80
47825;DHT22;33589;48.242;14.676;2023-07-20T06:14:49;33.20;56.30
47825;DHT22;33589;48.242;14.676;2023-07-20T06:17:15;33.70;59.40
47825;DHT22;33589;48.242;14.676;2023-07-20T06:19:40;34.00;62.60
47825;DHT22;33589;48.242;14.676;2023-07-20T06:22:06;34.20;59.30
47825;DHT22;33589;48.242;14.676;2023-07-20T06:24:32;34.40;59.10
47825;DHT22;33589;48.242;14.676;2023-07-20T06:26:57;34.80;62.20
47825;DHT22;33589;48.242;14.676;2023-07-20T06:29:23;34.90;58.00
47825;DHT22;33589;48.242;14.676;2023-07-20T06:31:48;35.10;61.60
47825;DHT22;33589;48.242;14.676;2023-07-20T06:46:55;36.20;56.20
47825;DHT22;33589;48.242;14.676;2023-07-20T07:06:40;36.80;66.70
47825;DHT22;33589;48.242;14.676;2023-07-20T07:09:06;36.50;51.80
47825;DHT22;33589;48.242;14.676;2023-07-20T07:11:33;36.30;52.90
47825;DHT22;33589;48.242;14.676;2023-07-20T07:13:59;36.30;52.30
47825;DHT22;33589;48.242;14.676;2023-07-20T07:16:25;36.00;52.20
47825;DHT22;33589;48.242;14.676;2023-07-20T07:18:51;35.30;54.00
47825;DHT22;33589;48.242;14.676;2023-07-20T07:21:17;34.90;55.70
47825;DHT22;33589;48.242;14.676;2023-07-20T07:23:43;34.80;55.50
47825;DHT22;33589;48.242;14.676;2023-07-20T07:26:11;35.80;54.00
47825;DHT22;33589;48.242;14.676;2023-07-20T07:28:37;35.80;48.30
47825;DHT22;33589;48.242;14.676;2023-07-20T07:44:49;36.20;40.90
47825;DHT22;33589;48.242;14.676;2023-07-20T07:49:50;35.70;45.40
47825;DHT22;33589;48.242;14.676;2023-07-20T07:52:16;35.70;40.20
47825;DHT22;33589;48.242;14.676;2023-07-20T07:55:18;33.70;34.20
47825;DHT22;33589;48.242;14.676;2023-07-20T07:58:25;36.10;65.40
47825;DHT22;33589;48.242;14.676;2023-07-20T08:01:15;36.20;35.00
47825;DHT22;33589;48.242;14.676;2023-07-20T08:04:06;36.30;33.90
47825;DHT22;33589;48.242;14.676;2023-07-20T08:06:48;36.40;58.40
47825;DHT22;33589;48.242;14.676;2023-07-20T08:09:43;36.70;65.00
47825;DHT22;33589;48.242;14.676;2023-07-20T08:12:39;37.00;35.00
47825;DHT22;33589;48.242;14.676;2023-07-20T08:15:30;36.60;54.10
47825;DHT22;33589;48.242;14.676;2023-07-20T08:18:21;36.10;44.10
47825;DHT22;33589;48.242;14.676;2023-07-20T08:26:15;35.00;46.60
47825;DHT22;33589;48.242;14.676;2023-07-20T08:28:41;35.10;46.80
47825;DHT22;33589;48.242;14.676;2023-07-20T08:31:07;34.70;52.90
47825;DHT22;33589;48.242;14.676;2023-07-20T08:33:33;34.50;53.80
47825;DHT22;33589;48.242;14.676;2023-07-20T08:43:23;33.40;50.90
47825;DHT22;33589;48.242;14.676;2023-07-20T08:48:18;32.90;43.90
47825;DHT22;33589;48.242;14.676;2023-07-20T08:50:45;32.90;45.10
47825;DHT22;33589;48.242;14.676;2023-07-20T08:53:12;33.00;46.00
47825;DHT22;33589;48.242;14.676;2023-07-20T08:55:39;32.60;47.10
47825;DHT22;33589;48.242;14.676;2023-07-20T08:58:08;32.10;47.50
47825;DHT22;33589;48.242;14.676;2023-07-20T09:00:37;32.20;49.10
47825;DHT22;33589;48.242;14.676;2023-07-20T09:03:03;32.00;49.70
47825;DHT22;33589;48.242;14.676;2023-07-20T09:05:30;32.00;51.00
47825;DHT22;33589;48.242;14.676;2023-07-20T09:07:56;32.00;51.10
47825;DHT22;33589;48.242;14.676;2023-07-20T09:10:21;32.00;51.20
47825;DHT22;33589;48.242;14.676;2023-07-20T09:12:47;32.10;53.20
47825;DHT22;33589;48.242;14.676;2023-07-20T09:15:13;32.00;50.10
47825;DHT22;33589;48.242;14.676;2023-07-20T09:17:39;32.00;51.10
47825;DHT22;33589;48.242;14.676;2023-07-20T09:20:10;31.60;62.60
47825;DHT22;33589;48.242;14.676;2023-07-20T09:30:06;31.50;57.60
47825;DHT22;33589;48.242;14.676;2023-07-20T09:37:34;31.50;57.90
47825;DHT22;33589;48.242;14.676;2023-07-20T09:49:49;31.00;56.60
47825;DHT22;33589;48.242;14.676;2023-07-20T09:52:15;31.20;55.50
47825;DHT22;33589;48.242;14.676;2023-07-20T09:54:44;31.30;52.70
47825;DHT22;33589;48.242;14.676;2023-07-20T09:57:11;31.30;52.40
47825;DHT22;33589;48.242;14.676;2023-07-20T10:07:05;30.90;63.30
47825;DHT22;33589;48.242;14.676;2023-07-20T10:09:38;31.00;53.80
47825;DHT22;33589;48.242;14.676;2023-07-20T10:12:05;30.70;61.10
47825;DHT22;33589;48.242;14.676;2023-07-20T10:14:35;30.50;56.90
47825;DHT22;33589;48.242;14.676;2023-07-20T10:19:49;30.40;53.50
47825;DHT22;33589;48.242;14.676;2023-07-20T10:22:27;30.20;50.80
47825;DHT22;33589;48.242;14.676;2023-07-20T10:24:55;30.20;50.90
47825;DHT22;33589;48.242;14.676;2023-07-20T10:27:24;30.10;51.20
47825;DHT22;33589;48.242;14.676;2023-07-20T10:34:52;30.30;54.90
47825;DHT22;33589;48.242;14.676;2023-07-20T10:43:12;29.70;55.10
47825;DHT22;33589;48.242;14.676;2023-07-20T10:58:34;28.90;61.00
47825;DHT22;33589;48.242;14.676;2023-07-20T11:01:02;29.30;56.60
47825;DHT22;33589;48.242;14.676;2023-07-20T11:08:40;29.40;57.00
47825;DHT22;33589;48.242;14.676;2023-07-20T11:23:55;29.50;59.30
47825;DHT22;33589;48.242;14.676;2023-07-20T11:26:21;29.50;59.30
47825;DHT22;33589;48.242;14.676;2023-07-20T11:28:50;29.60;61.40
47825;DHT22;33589;48.242;14.676;2023-07-20T11:43:34;29.30;70.00
47825;DHT22;33589;48.242;14.676;2023-07-20T11:46:01;29.10;73.30
47825;DHT22;33589;48.242;14.676;2023-07-20T11:50:55;29.10;73.90
47825;DHT22;33589;48.242;14.676;2023-07-20T11:53:24;29.20;57.50
47825;DHT22;33589;48.242;14.676;2023-07-20T11:55:49;29.20;57.00
47825;DHT22;33589;48.242;14.676;2023-07-20T11:58:15;29.40;57.70
47825;DHT22;33589;48.242;14.676;2023-07-20T12:00:44;29.50;57.90
47825;DHT22;33589;48.242;14.676;2023-07-20T12:05:38;29.30;59.30
47825;DHT22;33589;48.242;14.676;2023-07-20T12:08:04;29.40;57.80
47825;DHT22;33589;48.242;14.676;2023-07-20T12:10:30;29.30;55.80
47825;DHT22;33589;48.242;14.676;2023-07-20T12:13:01;29.30;56.90
47825;DHT22;33589;48.242;14.676;2023-07-20T12:15:30;29.10;58.70
47825;DHT22;33589;48.242;14.676;2023-07-20T12:17:59;29.20;59.40
47825;DHT22;33589;48.242;14.676;2023-07-20T12:22:51;29.20;59.20
47825;DHT22;33589;48.242;14.676;2023-07-20T12:52:18;29.60;61.40
47825;DHT22;33589;48.242;14.676;2023-07-20T12:54:43;29.90;54.10
47825;DHT22;33589;48.242;14.676;2023-07-20T13:06:55;29.20;52.30
47825;DHT22;33589;48.242;14.676;2023-07-20T13:09:24;29.20;52.20
47825;DHT22;33589;48.242;14.676;2023-07-20T13:11:50;29.10;53.40
47825;DHT22;33589;48.242;14.676;2023-07-20T13:14:18;29.20;53.50
47825;DHT22;33589;48.242;14.676;2023-07-20T13:16:43;29.30;55.20
47825;DHT22;33589;48.242;14.676;2023-07-20T13:19:09;29.00;56.00
47825;DHT22;33589;48.242;14.676;2023-07-20T13:26:29;29.00;63.70
47825;DHT22;33589;48.242;14.676;2023-07-20T13:36:13;29.30;61.00
47825;DHT22;33589;48.242;14.676;2023-07-20T13:38:39;29.40;58.80
47825;DHT22;33589;48.242;14.676;2023-07-20T13:41:05;29.40;60.60
47825;DHT22;33589;48.242;14.676;2023-07-20T13:43:31;29.40;61.60
47825;DHT22;33589;48.242;14.676;2023-07-20T13:46:00;29.40;67.00
47825;DHT22;33589;48.242;14.676;2023-07-20T13:48:30;29.40;62.90
47825;DHT22;33589;48.242;14.676;2023-07-20T13:50:56;29.40;58.40
47825;DHT22;33589;48.242;14.676;2023-07-20T13:53:21;29.60;57.20
47825;DHT22;33589;48.242;14.676;2023-07-20T13:58:14;29.40;60.90
47825;DHT22;33589;48.242;14.676;2023-07-20T14:00:40;29.40;58.30
47825;DHT22;33589;48.242;14.676;2023-07-20T14:03:06;29.40;58.50
47825;DHT22;33589;48.242;14.676;2023-07-20T14:05:32;29.40;60.20
47825;DHT22;33589;48.242;14.676;2023-07-20T14:07:57;29.60;60.50
47825;DHT22;33589;48.242;14.676;2023-07-20T14:10:23;29.50;62.30
47825;DHT22;33589;48.242;14.676;2023-07-20T14:12:53;29.40;67.80
47825;DHT22;33589;48.242;14.676;2023-07-20T14:15:19;29.20;54.70
47825;DHT22;33589;48.242;14.676;2023-07-20T14:17:45;29.40;55.30
47825;DHT22;33589;48.242;14.676;2023-07-20T14:20:11;29.40;56.40
47825;DHT22;33589;48.242;14.676;2023-07-20T14:25:03;29.00;62.30
47825;DHT22;33589;48.242;14.676;2023-07-20T14:34:53;29.50;62.90
47825;DHT22;33589;48.242;14.676;2023-07-20T14:37:19;29.70;57.30
47825;DHT22;33589;48.242;14.676;2023-07-20T14:42:10;30.00;57.20
47825;DHT22;33589;48.242;14.676;2023-07-20T14:44:36;29.70;58.10
47825;DHT22;33589;48.242;14.676;2023-07-20T15:04:14;29.70;57.30
47825;DHT22;33589;48.242;14.676;2023-07-20T15:06:40;29.80;58.30
47825;DHT22;33589;48.242;14.676;2023-07-20T15:11:33;29.90;57.00
47825;DHT22;33589;48.242;14.676;2023-07-20T15:13:59;30.00;57.90
47825;DHT22;33589;48.242;14.676;2023-07-20T15:16:25;30.00;58.60
47825;DHT22;33589;48.242;14.676;2023-07-20T15:23:43;30.00;61.30
47825;DHT22;33589;48.242;14.676;2023-07-20T15:26:09;30.00;62.80
47825;DHT22;33589;48.242;14.676;2023-07-20T15:28:37;30.00;62.80
47825;DHT22;33589;48.242;14.676;2023-07-20T15:31:04;30.00;61.90
47825;DHT22;33589;48.242;14.676;2023-07-20T15:33:30;30.00;62.90
47825;DHT22;33589;48.242;14.676;2023-07-20T15:35:56;30.00;63.00
47825;DHT22;33589;48.242;14.676;2023-07-20T15:38:22;30.00;63.80
47825;DHT22;33589;48.242;14.676;2023-07-20T15:40:49;29.90;60.50
47825;DHT22;33589;48.242;14.676;2023-07-20T15:43:15;30.10;59.10
47825;DHT22;33589;48.242;14.676;2023-07-20T15:45:41;30.00;58.50
47825;DHT22;33589;48.242;14.676;2023-07-20T15:48:06;30.00;58.80
47825;DHT22;33589;48.242;14.676;2023-07-20T15:50:32;30.10;59.60
47825;DHT22;33589;48.242;14.676;2023-07-20T15:52:58;30.10;59.20
47825;DHT22;33589;48.242;14.676;2023-07-20T15:55:23;30.30;59.50
47825;DHT22;33589;48.242;14.676;2023-07-20T16:54:34;29.80;66.80
47825;DHT22;33589;48.242;14.676;2023-07-20T16:57:02;29.70;66.30
47825;DHT22;33589;48.242;14.676;2023-07-20T16:59:28;29.80;65.40
47825;DHT22;33589;48.242;14.676;2023-07-20T17:01:54;29.70;63.20
47825;DHT22;33589;48.242;14.676;2023-07-20T17:06:48;29.50;58.60
47825;DHT22;33589;48.242;14.676;2023-07-20T17:09:15;29.70;60.80
47825;DHT22;33589;48.242;14.676;2023-07-20T17:11:43;29.50;58.60
47825;DHT22;33589;48.242;14.676;2023-07-20T17:14:08;29.50;59.90
47825;DHT22;33589;48.242;14.676;2023-07-20T17:16:36;29.50;59.60
47825;DHT22;33589;48.242;14.676;2023-07-20T17:19:02;29.40;61.50
47825;DHT22;33589;48.242;14.676;2023-07-20T17:21:28;29.50;64.90
47825;DHT22;33589;48.242;14.676;2023-07-20T17:26:22;28.20;60.20
47825;DHT22;33589;48.242;14.676;2023-07-20T17:28:48;29.60;63.50
47825;DHT22;33589;48.242;14.676;2023-07-20T17:31:14;29.40;65.50
47825;DHT22;33589;48.242;14.676;2023-07-20T17:36:07;29.30;63.30
47825;DHT22;33589;48.242;14.676;2023-07-20T17:58:09;28.80;60.50
47825;DHT22;33589;48.242;14.676;2023-07-20T18:00:36;28.90;60.80
47825;DHT22;33589;48.242;14.676;2023-07-20T18:03:04;29.40;61.60
47825;DHT22;33589;48.242;14.676;2023-07-20T18:05:30;28.80;59.70
47825;DHT22;33589;48.242;14.676;2023-07-20T18:07:58;28.70;61.60
47825;DHT22;33589;48.242;14.676;2023-07-20T18:12:50;28.50;65.90
47825;DHT22;33589;48.242;14.676;2023-07-20T18:17:46;28.50;63.00
47825;DHT22;33589;48.242;14.676;2023-07-20T18:20:12;28.50;61.90
47825;DHT22;33589;48.242;14.676;2023-07-20T18:22:38;28.50;62.00
47825;DHT22;33589;48.242;14.676;2023-07-20T18:25:04;28.50;62.50
47825;DHT22;33589;48.242;14.676;2023-07-20T18:27:31;28.50;62.40
47825;DHT22;33589;48.242;14.676;2023-07-20T18:29:57;28.40;62.80
47825;DHT22;33589;48.242;14.676;2023-07-20T18:32:23;28.40;63.10
47825;DHT22;33589;48.242;14.676;2023-07-20T18:34:48;28.40;63.50
47825;DHT22;33589;48.242;14.676;2023-07-20T18:37:15;28.60;64.60
47825;DHT22;33589;48.242;14.676;2023-07-20T18:39:46;28.40;64.70
47825;DHT22;33589;48.242;14.676;2023-07-20T18:44:39;28.30;68.80
47825;DHT22;33589;48.242;14.676;2023-07-20T18:49:38;27.60;71.40
47825;DHT22;33589;48.242;14.676;2023-07-20T18:52:05;28.00;64.00
47825;DHT22;33589;48.242;14.676;2023-07-20T19:06:47;27.60;72.50
47825;DHT22;33589;48.242;14.676;2023-07-20T19:09:13;27.60;70.80
47825;DHT22;33589;48.242;14.676;2023-07-20T19:11:38;27.70;73.60
47825;DHT22;33589;48.242;14.676;2023-07-20T19:19:00;27.00;76.40
47825;DHT22;33589;48.242;14.676;2023-07-20T19:21:26;26.90;74.00
47825;DHT22;33589;48.242;14.676;2023-07-20T19:23:52;26.80;69.10
47825;DHT22;33589;48.242;14.676;2023-07-20T19:26:18;26.60;69.60
47825;DHT22;33589;48.242;14.676;2023-07-20T19:28:44;26.50;70.80
47825;DHT22;33589;48.242;14.676;2023-07-20T19:31:10;26.50;67.60
47825;DHT22;33589;48.242;14.676;2023-07-20T19:33:35;26.50;67.30
47825;DHT22;33589;48.242;14.676;2023-07-20T19:36:01;26.40;67.20
47825;DHT22;33589;48.242;14.676;2023-07-20T19:38:28;26.40;67.50
47825;DHT22;33589;48.242;14.676;2023-07-20T19:40:54;26.40;68.70
47825;DHT22;33589;48.242;14.676;2023-07-20T19:43:21;26.30;69.20
47825;DHT22;33589;48.242;14.676;2023-07-20T19:45:50;26.30;70.70
47825;DHT22;33589;48.242;14.676;2023-07-20T19:48:16;26.30;73.10
47825;DHT22;33589;48.242;14.676;2023-07-20T19:55:54;25.90;77.80
47825;DHT22;33589;48.242;14.676;2023-07-20T19:58:23;26.10;76.70
47825;DHT22;33589;48.242;14.676;2023-07-20T20:00:49;26.10;76.90
47825;DHT22;33589;48.242;14.676;2023-07-20T20:08:07;25.70;75.30
47825;DHT22;33589;48.242;14.676;2023-07-20T20:10:35;25.90;73.50
47825;DHT22;33589;48.242;14.676;2023-07-20T20:13:01;26.20;73.50
47825;DHT22;33589;48.242;14.676;2023-07-20T20:15:28;25.80;74.00
47825;DHT22;33589;48.242;14.676;2023-07-20T20:17:57;25.90;74.50
47825;DHT22;33589;48.242;14.676;2023-07-20T20:20:34;26.20;75.30
47825;DHT22;33589;48.242;14.676;2023-07-20T20:23:00;25.90;75.00
47825;DHT22;33589;48.242;14.676;2023-07-20T20:50:06;24.90;79.70
47825;DHT22;33589;48.242;14.676;2023-07-20T20:52:34;24.90;71.80
47825;DHT22;33589;48.242;14.676;2023-07-20T20:55:00;25.00;72.20
47825;DHT22;33589;48.242;14.676;2023-07-20T20:57:28;25.10;71.70
47825;DHT22;33589;48.242;14.676;2023-07-20T20:59:54;25.30;71.70
47825;DHT22;33589;48.242;14.676;2023-07-20T21:02:19;25.30;72.30
47825;DHT22;33589;48.242;14.676;2023-07-20T21:07:15;24.90;90.60
47825;DHT22;33589;48.242;14.676;2023-07-20T21:09:41;24.90;75.40
47825;DHT22;33589;48.242;14.676;2023-07-20T21:12:07;24.90;73.70
47825;DHT22;33589;48.242;14.676;2023-07-20T21:14:32;25.00;74.00
47825;DHT22;33589;48.242;14.676;2023-07-20T21:16:59;25.10;76.10
47825;DHT22;33589;48.242;14.676;2023-07-20T21:19:24;25.10;73.10
47825;DHT22;33589;48.242;14.676;2023-07-20T21:21:50;24.80;73.30
47825;DHT22;33589;48.242;14.676;2023-07-20T21:24:16;24.70;73.90
47825;DHT22;33589;48.242;14.676;2023-07-20T21:26:41;24.90;73.90
47825;DHT22;33589;48.242;14.676;2023-07-20T21:29:07;24.70;73.60
47825;DHT22;33589;48.242;14.676;2023-07-20T21:31:33;24.70;74.00
47825;DHT22;33589;48.242;14.676;2023-07-20T21:34:00;24.60;81.30
47825;DHT22;33589;48.242;14.676;2023-07-20T21:41:19;24.30;81.50
47825;DHT22;33589;48.242;14.676;2023-07-20T21:43:45;24.70;82.20
47825;DHT22;33589;48.242;14.676;2023-07-20T21:53:36;24.20;76.80
47825;DHT22;33589;48.242;14.676;2023-07-20T21:56:02;24.40;67.90
47825;DHT22;33589;48.242;14.676;2023-07-20T21:58:28;24.00;54.70
47825;DHT22;33589;48.242;14.676;2023-07-20T22:00:53;24.10;54.60
47825;DHT22;33589;48.242;14.676;2023-07-20T22:03:21;24.60;54.30
47825;DHT22;33589;48.242;14.676;2023-07-20T22:05:47;24.10;53.70
47825;DHT22;33589;48.242;14.676;2023-07-20T22:08:17;24.20;53.60
47825;DHT22;33589;48.242;14.676;2023-07-20T22:10:43;24.10;53.60
47825;DHT22;33589;48.242;14.676;2023-07-20T22:13:09;24.10;53.70
47825;DHT22;33589;48.242;14.676;2023-07-20T22:15:35;24.40;54.60
47825;DHT22;33589;48.242;14.676;2023-07-20T22:18:01;24.00;55.40
47825;DHT22;33589;48.242;14.676;2023-07-20T22:20:28;23.90;70.30
47825;DHT22;33589;48.242;14.676;2023-07-20T22:22:55;23.90;71.30
47825;DHT22;33589;48.242;14.676;2023-07-20T22:25:21;23.90;71.10
47825;DHT22;33589;48.242;14.676;2023-07-20T22:27:47;24.00;71.40
47825;DHT22;33589;48.242;14.676;2023-07-20T22:30:12;23.90;71.20
47825;DHT22;33589;48.242;14.676;2023-07-20T22:32:40;23.90;71.10
47825;DHT22;33589;48.242;14.676;2023-07-20T22:35:07;24.00;70.70
47825;DHT22;33589;48.242;14.676;2023-07-20T22:37:32;24.00;70.80
47825;DHT22;33589;48.242;14.676;2023-07-20T22:39:58;23.90;71.20
47825;DHT22;33589;48.242;14.676;2023-07-20T22:42:24;24.10;71.40
47825;DHT22;33589;48.242;14.676;2023-07-20T22:44:54;23.80;71.40
47825;DHT22;33589;48.242;14.676;2023-07-20T22:47:19;24.10;71.50
47825;DHT22;33589;48.242;14.676;2023-07-20T22:49:45;24.10;71.50
47825;DHT22;33589;48.242;14.676;2023-07-20T22:52:11;23.80;71.20
47825;DHT22;33589;48.242;14.676;2023-07-20T22:54:38;24.00;71.30
47825;DHT22;33589;48.242;14.676;2023-07-20T22:57:04;24.10;71.70
47825;DHT22;33589;48.242;14.676;2023-07-20T22:59:31;23.80;70.80
47825;DHT22;33589;48.242;14.676;2023-07-20T23:01:56;24.00;71.50
47825;DHT22;33589;48.242;14.676;2023-07-20T23:04:22;24.00;71.60
47825;DHT22;33589;48.242;14.676;2023-07-20T23:06:48;23.80;71.20
47825;DHT22;33589;48.242;14.676;2023-07-20T23:09:14;23.70;71.60
47825;DHT22;33589;48.242;14.676;2023-07-20T23:11:40;24.00;73.10
47825;DHT22;33589;48.242;14.676;2023-07-20T23:14:05;23.90;71.80
47825;DHT22;33589;48.242;14.676;2023-07-20T23:16:31;23.90;71.60
47825;DHT22;33589;48.242;14.676;2023-07-20T23:18:57;23.70;71.50
47825;DHT22;33589;48.242;14.676;2023-07-20T23:21:23;23.90;73.80
47825;DHT22;33589;48.242;14.676;2023-07-20T23:23:48;23.60;73.40
47825;DHT22;33589;48.242;14.676;2023-07-20T23:26:15;23.60;73.50
47825;DHT22;33589;48.242;14.676;2023-07-20T23:28:40;23.90;74.30
47825;DHT22;33589;48.242;14.676;2023-07-20T23:31:06;23.70;74.70
47825;DHT22;33589;48.242;14.676;2023-07-20T23:33:32;23.70;75.00
47825;DHT22;33589;48.242;14.676;2023-07-20T23:35:58;23.60;75.00
47825;DHT22;33589;48.242;14.676;2023-07-20T23:38:25;23.50;77.70
47825;DHT22;33589;48.242;14.676;2023-07-20T23:40:51;23.60;73.30
47825;DHT22;33589;48.242;14.676;2023-07-20T23:43:16;23.50;70.10
47825;DHT22;33589;48.242;14.676;2023-07-20T23:45:42;23.50;69.30
47825;DHT22;33589;48.242;14.676;2023-07-20T23:48:09;23.30;68.60
47825;DHT22;33589;48.242;14.676;2023-07-20T23:50:36;23.30;68.60
47825;DHT22;33589;48.242;14.676;2023-07-20T23:53:03;23.40;70.30
47825;DHT22;33589;48.242;14.676;2023-07-20T23:55:28;23.30;70.80
47825;DHT22;33589;48.242;14.676;2023-07-20T23:57:54;23.30;70.40
